sensor_id;sensor_type;location;lat;lon;timestamp;P1;durP1;ratioP1;P2;durP2;ratioP2
41043;SDS011;51680;49.806;18.774;2023-04-15T00:00:18;2.05;;;0.88;;
41043;SDS011;51680;49.806;18.774;2023-04-15T00:03:20;2.78;;;1.00;;
41043;SDS011;51680;49.806;18.774;2023-04-15T00:06:22;2.60;;;1.15;;
41043;SDS011;51680;49.806;18.774;2023-04-15T00:09:24;2.65;;;1.20;;
41043;SDS011;51680;49.806;18.774;2023-04-15T00:12:26;3.33;;;1.25;;
41043;SDS011;51680;49.806;18.774;2023-04-15T00:15:30;3.58;;;1.33;;
41043;SDS011;51680;49.806;18.774;2023-04-15T00:18:32;2.58;;;0.90;;
41043;SDS011;51680;49.806;18.774;2023-04-15T00:21:33;2.00;;;0.95;;
41043;SDS011;51680;49.806;18.774;2023-04-15T00:24:35;1.55;;;0.80;;
41043;SDS011;51680;49.806;18.774;2023-04-15T00:27:37;2.72;;;1.02;;
41043;SDS011;51680;49.806;18.774;2023-04-15T00:30:41;2.03;;;0.90;;
41043;SDS011;51680;49.806;18.774;2023-04-15T00:33:42;2.93;;;1.00;;
41043;SDS011;51680;49.806;18.774;2023-04-15T00:36:44;2.97;;;0.82;;
41043;SDS011;51680;49.806;18.774;2023-04-15T00:39:46;2.00;;;0.80;;
41043;SDS011;51680;49.806;18.774;2023-04-15T00:42:48;1.77;;;0.85;;
41043;SDS011;51680;49.806;18.774;2023-04-15T00:45:51;1.92;;;1.20;;
41043;SDS011;51680;49.806;18.774;2023-04-15T00:48:55;2.10;;;0.93;;
41043;SDS011;51680;49.806;18.774;2023-04-15T00:51:57;3.75;;;0.73;;
41043;SDS011;51680;49.806;18.774;2023-04-15T00:55:17;2.35;;;0.88;;
41043;SDS011;51680;49.806;18.774;2023-04-15T00:58:19;2.55;;;1.02;;
41043;SDS011;51680;49.806;18.774;2023-04-15T01:01:23;1.88;;;0.70;;
41043;SDS011;51680;49.806;18.774;2023-04-15T01:04:26;1.90;;;0.75;;
41043;SDS011;51680;49.806;18.774;2023-04-15T01:07:35;2.13;;;0.82;;
41043;SDS011;51680;49.806;18.774;2023-04-15T01:10:37;2.63;;;1.00;;
41043;SDS011;51680;49.806;18.774;2023-04-15T01:13:39;2.83;;;1.00;;
41043;SDS011;51680;49.806;18.774;2023-04-15T01:16:43;1.92;;;0.60;;
41043;SDS011;51680;49.806;18.774;2023-04-15T01:19:45;1.52;;;0.70;;
41043;SDS011;51680;49.806;18.774;2023-04-15T01:22:47;2.03;;;0.80;;
41043;SDS011;51680;49.806;18.774;2023-04-15T01:25:51;2.67;;;0.70;;
41043;SDS011;51680;49.806;18.774;2023-04-15T01:28:53;2.15;;;0.63;;
41043;SDS011;51680;49.806;18.774;2023-04-15T01:31:55;1.17;;;0.68;;
41043;SDS011;51680;49.806;18.774;2023-04-15T01:34:59;1.25;;;0.70;;
41043;SDS011;51680;49.806;18.774;2023-04-15T01:38:02;3.30;;;0.90;;
41043;SDS011;51680;49.806;18.774;2023-04-15T01:41:08;1.50;;;0.70;;
41043;SDS011;51680;49.806;18.774;2023-04-15T01:44:09;4.17;;;0.77;;
41043;SDS011;51680;49.806;18.774;2023-04-15T01:47:13;2.85;;;0.80;;
41043;SDS011;51680;49.806;18.774;2023-04-15T01:50:15;1.55;;;0.77;;
41043;SDS011;51680;49.806;18.774;2023-04-15T01:53:17;1.95;;;0.80;;
41043;SDS011;51680;49.806;18.774;2023-04-15T01:56:21;2.90;;;0.63;;
41043;SDS011;51680;49.806;18.774;2023-04-15T02:02:28;1.40;;;0.60;;
41043;SDS011;51680;49.806;18.774;2023-04-15T02:05:30;2.97;;;0.70;;
41043;SDS011;51680;49.806;18.774;2023-04-15T02:08:31;1.65;;;0.80;;
41043;SDS011;51680;49.806;18.774;2023-04-15T02:11:34;1.50;;;0.85;;
41043;SDS011;51680;49.806;18.774;2023-04-15T02:14:38;2.60;;;0.90;;
41043;SDS011;51680;49.806;18.774;2023-04-15T02:17:39;1.88;;;0.80;;
41043;SDS011;51680;49.806;18.774;2023-04-15T02:20:44;1.77;;;0.82;;
41043;SDS011;51680;49.806;18.774;2023-04-15T02:23:47;3.25;;;0.80;;
41043;SDS011;51680;49.806;18.774;2023-04-15T02:26:50;1.02;;;0.57;;
41043;SDS011;51680;49.806;18.774;2023-04-15T02:29:52;1.37;;;0.70;;
41043;SDS011;51680;49.806;18.774;2023-04-15T02:32:54;2.22;;;0.90;;
41043;SDS011;51680;49.806;18.774;2023-04-15T02:35:58;2.00;;;0.98;;
41043;SDS011;51680;49.806;18.774;2023-04-15T02:39:01;2.17;;;1.00;;
41043;SDS011;51680;49.806;18.774;2023-04-15T02:42:04;2.60;;;1.40;;
41043;SDS011;51680;49.806;18.774;2023-04-15T02:45:07;2.47;;;1.10;;
41043;SDS011;51680;49.806;18.774;2023-04-15T02:48:09;2.50;;;1.20;;
41043;SDS011;51680;49.806;18.774;2023-04-15T02:51:12;4.25;;;1.30;;
41043;SDS011;51680;49.806;18.774;2023-04-15T02:54:14;4.20;;;1.20;;
41043;SDS011;51680;49.806;18.774;2023-04-15T02:57:18;2.28;;;1.00;;
41043;SDS011;51680;49.806;18.774;2023-04-15T03:00:19;2.70;;;1.13;;
41043;SDS011;51680;49.806;18.774;2023-04-15T03:03:22;2.47;;;1.05;;
41043;SDS011;51680;49.806;18.774;2023-04-15T03:06:24;3.05;;;0.80;;
41043;SDS011;51680;49.806;18.774;2023-04-15T03:09:26;4.25;;;1.20;;
41043;SDS011;51680;49.806;18.774;2023-04-15T03:12:30;1.92;;;0.90;;
41043;SDS011;51680;49.806;18.774;2023-04-15T03:15:32;2.78;;;1.15;;
41043;SDS011;51680;49.806;18.774;2023-04-15T03:18:34;3.40;;;1.60;;
41043;SDS011;51680;49.806;18.774;2023-04-15T03:21:37;2.42;;;1.08;;
41043;SDS011;51680;49.806;18.774;2023-04-15T03:24:38;3.17;;;1.40;;
41043;SDS011;51680;49.806;18.774;2023-04-15T03:27:42;3.25;;;1.70;;
41043;SDS011;51680;49.806;18.774;2023-04-15T03:30:45;4.28;;;1.90;;
41043;SDS011;51680;49.806;18.774;2023-04-15T03:33:47;2.38;;;1.20;;
41043;SDS011;51680;49.806;18.774;2023-04-15T03:36:49;3.38;;;1.20;;
41043;SDS011;51680;49.806;18.774;2023-04-15T03:39:50;3.85;;;1.85;;
41043;SDS011;51680;49.806;18.774;2023-04-15T03:42:54;10.15;;;3.42;;
41043;SDS011;51680;49.806;18.774;2023-04-15T03:45:55;6.35;;;2.45;;
41043;SDS011;51680;49.806;18.774;2023-04-15T03:48:57;8.35;;;2.70;;
41043;SDS011;51680;49.806;18.774;2023-04-15T03:51:59;3.60;;;1.75;;
41043;SDS011;51680;49.806;18.774;2023-04-15T03:55:00;3.92;;;1.60;;
41043;SDS011;51680;49.806;18.774;2023-04-15T03:58:04;2.20;;;1.30;;
41043;SDS011;51680;49.806;18.774;2023-04-15T04:01:05;3.97;;;1.50;;
41043;SDS011;51680;49.806;18.774;2023-04-15T04:04:26;2.47;;;1.10;;
41043;SDS011;51680;49.806;18.774;2023-04-15T04:07:28;23.55;;;6.53;;
41043;SDS011;51680;49.806;18.774;2023-04-15T04:10:30;18.95;;;4.80;;
41043;SDS011;51680;49.806;18.774;2023-04-15T04:13:33;12.07;;;3.00;;
41043;SDS011;51680;49.806;18.774;2023-04-15T04:16:35;9.63;;;3.08;;
41043;SDS011;51680;49.806;18.774;2023-04-15T04:19:36;4.78;;;1.65;;
41043;SDS011;51680;49.806;18.774;2023-04-15T04:22:38;5.65;;;2.25;;
41043;SDS011;51680;49.806;18.774;2023-04-15T04:25:40;6.35;;;2.15;;
41043;SDS011;51680;49.806;18.774;2023-04-15T04:28:44;12.00;;;2.78;;
41043;SDS011;51680;49.806;18.774;2023-04-15T04:31:45;10.53;;;3.27;;
41043;SDS011;51680;49.806;18.774;2023-04-15T04:34:47;10.65;;;2.70;;
41043;SDS011;51680;49.806;18.774;2023-04-15T04:37:49;9.20;;;2.47;;
41043;SDS011;51680;49.806;18.774;2023-04-15T04:40:51;9.95;;;2.70;;
41043;SDS011;51680;49.806;18.774;2023-04-15T04:43:54;13.30;;;4.75;;
41043;SDS011;51680;49.806;18.774;2023-04-15T04:46:56;18.50;;;7.27;;
41043;SDS011;51680;49.806;18.774;2023-04-15T04:49:58;12.20;;;4.78;;
41043;SDS011;51680;49.806;18.774;2023-04-15T04:53:00;19.65;;;4.95;;
41043;SDS011;51680;49.806;18.774;2023-04-15T04:56:01;12.30;;;4.78;;
41043;SDS011;51680;49.806;18.774;2023-04-15T04:59:05;24.20;;;5.20;;
41043;SDS011;51680;49.806;18.774;2023-04-15T05:02:07;14.70;;;4.30;;
41043;SDS011;51680;49.806;18.774;2023-04-15T05:05:09;11.50;;;3.40;;
41043;SDS011;51680;49.806;18.774;2023-04-15T05:08:11;5.25;;;1.95;;
41043;SDS011;51680;49.806;18.774;2023-04-15T05:11:13;7.10;;;2.05;;
41043;SDS011;51680;49.806;18.774;2023-04-15T05:14:16;5.85;;;1.75;;
41043;SDS011;51680;49.806;18.774;2023-04-15T05:17:17;6.73;;;2.20;;
41043;SDS011;51680;49.806;18.774;2023-04-15T05:20:19;10.90;;;3.78;;
41043;SDS011;51680;49.806;18.774;2023-04-15T05:23:21;9.73;;;4.22;;
41043;SDS011;51680;49.806;18.774;2023-04-15T05:26:22;9.32;;;3.42;;
41043;SDS011;51680;49.806;18.774;2023-04-15T05:29:26;15.63;;;5.22;;
41043;SDS011;51680;49.806;18.774;2023-04-15T05:32:27;5.80;;;2.53;;
41043;SDS011;51680;49.806;18.774;2023-04-15T05:35:29;4.43;;;2.05;;
41043;SDS011;51680;49.806;18.774;2023-04-15T05:38:31;8.52;;;2.92;;
41043;SDS011;51680;49.806;18.774;2023-04-15T05:41:33;5.47;;;2.50;;
41043;SDS011;51680;49.806;18.774;2023-04-15T05:44:36;5.75;;;2.75;;
41043;SDS011;51680;49.806;18.774;2023-04-15T05:47:38;5.60;;;2.88;;
41043;SDS011;51680;49.806;18.774;2023-04-15T05:50:40;6.00;;;2.85;;
41043;SDS011;51680;49.806;18.774;2023-04-15T05:53:42;5.68;;;2.47;;
41043;SDS011;51680;49.806;18.774;2023-04-15T05:56:45;3.20;;;1.30;;
41043;SDS011;51680;49.806;18.774;2023-04-15T05:59:48;3.30;;;1.30;;
41043;SDS011;51680;49.806;18.774;2023-04-15T06:02:51;4.57;;;1.58;;
41043;SDS011;51680;49.806;18.774;2023-04-15T06:05:53;6.20;;;1.10;;
41043;SDS011;51680;49.806;18.774;2023-04-15T06:08:55;5.65;;;1.55;;
41043;SDS011;51680;49.806;18.774;2023-04-15T06:11:57;4.03;;;0.80;;
41043;SDS011;51680;49.806;18.774;2023-04-15T06:18:04;4.90;;;1.10;;
41043;SDS011;51680;49.806;18.774;2023-04-15T06:21:05;4.80;;;2.10;;
41043;SDS011;51680;49.806;18.774;2023-04-15T06:24:07;2.08;;;0.70;;
41043;SDS011;51680;49.806;18.774;2023-04-15T06:27:09;6.55;;;2.50;;
41043;SDS011;51680;49.806;18.774;2023-04-15T06:30:12;7.50;;;2.25;;
41043;SDS011;51680;49.806;18.774;2023-04-15T06:33:14;3.33;;;1.40;;
41043;SDS011;51680;49.806;18.774;2023-04-15T06:36:16;5.32;;;1.42;;
41043;SDS011;51680;49.806;18.774;2023-04-15T06:39:17;13.50;;;5.28;;
41043;SDS011;51680;49.806;18.774;2023-04-15T06:42:38;12.65;;;4.55;;
41043;SDS011;51680;49.806;18.774;2023-04-15T06:45:41;9.02;;;3.42;;
41043;SDS011;51680;49.806;18.774;2023-04-15T06:48:43;11.23;;;4.50;;
41043;SDS011;51680;49.806;18.774;2023-04-15T06:51:44;11.40;;;4.95;;
41043;SDS011;51680;49.806;18.774;2023-04-15T06:54:46;9.90;;;3.80;;
41043;SDS011;51680;49.806;18.774;2023-04-15T06:57:48;2.72;;;1.20;;
41043;SDS011;51680;49.806;18.774;2023-04-15T07:00:51;3.63;;;1.52;;
41043;SDS011;51680;49.806;18.774;2023-04-15T07:03:53;5.50;;;2.90;;
41043;SDS011;51680;49.806;18.774;2023-04-15T07:06:54;6.18;;;2.90;;
41043;SDS011;51680;49.806;18.774;2023-04-15T07:09:56;3.97;;;1.40;;
41043;SDS011;51680;49.806;18.774;2023-04-15T07:13:17;5.20;;;2.05;;
41043;SDS011;51680;49.806;18.774;2023-04-15T07:16:20;2.75;;;0.95;;
41043;SDS011;51680;49.806;18.774;2023-04-15T07:19:22;0.98;;;0.50;;
41043;SDS011;51680;49.806;18.774;2023-04-15T07:22:24;3.65;;;0.70;;
41043;SDS011;51680;49.806;18.774;2023-04-15T07:25:25;2.67;;;0.88;;
41043;SDS011;51680;49.806;18.774;2023-04-15T07:28:27;1.25;;;0.70;;
41043;SDS011;51680;49.806;18.774;2023-04-15T07:31:31;3.75;;;1.83;;
41043;SDS011;51680;49.806;18.774;2023-04-15T07:34:32;3.22;;;1.55;;
41043;SDS011;51680;49.806;18.774;2023-04-15T07:37:34;4.40;;;1.48;;
41043;SDS011;51680;49.806;18.774;2023-04-15T07:40:36;4.78;;;1.40;;
41043;SDS011;51680;49.806;18.774;2023-04-15T07:43:38;3.65;;;1.30;;
41043;SDS011;51680;49.806;18.774;2023-04-15T07:46:41;2.53;;;1.30;;
41043;SDS011;51680;49.806;18.774;2023-04-15T07:49:43;2.78;;;1.33;;
41043;SDS011;51680;49.806;18.774;2023-04-15T07:52:45;2.45;;;1.13;;
41043;SDS011;51680;49.806;18.774;2023-04-15T07:56:06;4.38;;;1.10;;
41043;SDS011;51680;49.806;18.774;2023-04-15T07:59:08;2.75;;;1.20;;
41043;SDS011;51680;49.806;18.774;2023-04-15T08:02:12;2.92;;;1.20;;
41043;SDS011;51680;49.806;18.774;2023-04-15T08:05:14;1.77;;;0.82;;
41043;SDS011;51680;49.806;18.774;2023-04-15T08:08:16;3.13;;;0.82;;
41043;SDS011;51680;49.806;18.774;2023-04-15T08:11:18;2.42;;;1.02;;
41043;SDS011;51680;49.806;18.774;2023-04-15T08:14:19;1.75;;;0.77;;
41043;SDS011;51680;49.806;18.774;2023-04-15T08:17:22;2.75;;;1.10;;
41043;SDS011;51680;49.806;18.774;2023-04-15T08:20:24;2.33;;;0.90;;
41043;SDS011;51680;49.806;18.774;2023-04-15T08:23:26;1.35;;;0.60;;
41043;SDS011;51680;49.806;18.774;2023-04-15T08:26:28;1.38;;;0.40;;
41043;SDS011;51680;49.806;18.774;2023-04-15T08:29:30;1.02;;;0.50;;
41043;SDS011;51680;49.806;18.774;2023-04-15T08:32:33;1.20;;;0.52;;
41043;SDS011;51680;49.806;18.774;2023-04-15T08:35:35;0.70;;;0.50;;
41043;SDS011;51680;49.806;18.774;2023-04-15T08:38:37;1.77;;;0.40;;
41043;SDS011;51680;49.806;18.774;2023-04-15T08:41:39;1.30;;;0.60;;
41043;SDS011;51680;49.806;18.774;2023-04-15T08:44:45;0.93;;;0.60;;
41043;SDS011;51680;49.806;18.774;2023-04-15T08:47:49;0.43;;;0.40;;
41043;SDS011;51680;49.806;18.774;2023-04-15T08:50:56;0.70;;;0.43;;
41043;SDS011;51680;49.806;18.774;2023-04-15T08:53:59;1.30;;;0.70;;
41043;SDS011;51680;49.806;18.774;2023-04-15T08:57:02;1.75;;;0.82;;
41043;SDS011;51680;49.806;18.774;2023-04-15T09:00:04;2.40;;;0.90;;
41043;SDS011;51680;49.806;18.774;2023-04-15T09:03:10;1.65;;;0.82;;
41043;SDS011;51680;49.806;18.774;2023-04-15T09:06:12;5.15;;;1.05;;
41043;SDS011;51680;49.806;18.774;2023-04-15T09:09:14;2.75;;;1.10;;
41043;SDS011;51680;49.806;18.774;2023-04-15T09:12:16;1.90;;;0.80;;
41043;SDS011;51680;49.806;18.774;2023-04-15T09:15:17;2.13;;;1.10;;
41043;SDS011;51680;49.806;18.774;2023-04-15T09:18:27;1.85;;;1.00;;
41043;SDS011;51680;49.806;18.774;2023-04-15T09:21:30;3.88;;;1.00;;
41043;SDS011;51680;49.806;18.774;2023-04-15T09:24:34;2.70;;;1.10;;
41043;SDS011;51680;49.806;18.774;2023-04-15T09:27:38;1.40;;;0.80;;
41043;SDS011;51680;49.806;18.774;2023-04-15T09:30:50;3.97;;;1.40;;
41043;SDS011;51680;49.806;18.774;2023-04-15T09:33:56;2.55;;;1.35;;
41043;SDS011;51680;49.806;18.774;2023-04-15T09:36:58;2.35;;;1.10;;
41043;SDS011;51680;49.806;18.774;2023-04-15T09:40:00;2.67;;;1.00;;
41043;SDS011;51680;49.806;18.774;2023-04-15T09:43:01;1.40;;;0.80;;
41043;SDS011;51680;49.806;18.774;2023-04-15T09:46:04;1.60;;;0.80;;
41043;SDS011;51680;49.806;18.774;2023-04-15T09:49:07;1.58;;;0.90;;
41043;SDS011;51680;49.806;18.774;2023-04-15T09:52:12;2.80;;;1.08;;
41043;SDS011;51680;49.806;18.774;2023-04-15T09:55:16;1.30;;;0.80;;
41043;SDS011;51680;49.806;18.774;2023-04-15T10:01:21;3.20;;;1.63;;
41043;SDS011;51680;49.806;18.774;2023-04-15T10:04:24;4.93;;;2.10;;
41043;SDS011;51680;49.806;18.774;2023-04-15T10:07:28;3.22;;;1.60;;
41043;SDS011;51680;49.806;18.774;2023-04-15T10:10:31;3.45;;;1.20;;
41043;SDS011;51680;49.806;18.774;2023-04-15T10:13:33;1.92;;;1.20;;
41043;SDS011;51680;49.806;18.774;2023-04-15T10:16:37;2.33;;;1.20;;
41043;SDS011;51680;49.806;18.774;2023-04-15T10:19:49;4.18;;;1.60;;
41043;SDS011;51680;49.806;18.774;2023-04-15T10:22:54;1.92;;;1.20;;
41043;SDS011;51680;49.806;18.774;2023-04-15T10:25:56;2.60;;;1.30;;
41043;SDS011;51680;49.806;18.774;2023-04-15T10:28:59;2.67;;;1.35;;
41043;SDS011;51680;49.806;18.774;2023-04-15T10:32:03;2.33;;;1.20;;
41043;SDS011;51680;49.806;18.774;2023-04-15T10:35:07;2.60;;;1.25;;
41043;SDS011;51680;49.806;18.774;2023-04-15T10:41:33;2.60;;;1.60;;
41043;SDS011;51680;49.806;18.774;2023-04-15T10:44:37;2.83;;;1.42;;
41043;SDS011;51680;49.806;18.774;2023-04-15T10:48:00;2.53;;;1.40;;
41043;SDS011;51680;49.806;18.774;2023-04-15T10:51:04;2.65;;;1.40;;
41043;SDS011;51680;49.806;18.774;2023-04-15T10:54:07;3.77;;;1.60;;
41043;SDS011;51680;49.806;18.774;2023-04-15T10:57:14;3.70;;;1.70;;
41043;SDS011;51680;49.806;18.774;2023-04-15T11:00:17;3.35;;;1.70;;
41043;SDS011;51680;49.806;18.774;2023-04-15T11:03:33;2.95;;;1.65;;
41043;SDS011;51680;49.806;18.774;2023-04-15T11:06:43;3.47;;;1.70;;
41043;SDS011;51680;49.806;18.774;2023-04-15T11:09:45;2.60;;;1.35;;
41043;SDS011;51680;49.806;18.774;2023-04-15T11:12:49;3.67;;;1.05;;
41043;SDS011;51680;49.806;18.774;2023-04-15T11:15:54;3.15;;;1.50;;
41043;SDS011;51680;49.806;18.774;2023-04-15T11:18:58;1.92;;;1.20;;
41043;SDS011;51680;49.806;18.774;2023-04-15T11:22:06;2.70;;;1.45;;
41043;SDS011;51680;49.806;18.774;2023-04-15T11:25:08;3.67;;;1.63;;
41043;SDS011;51680;49.806;18.774;2023-04-15T11:28:11;3.47;;;1.27;;
41043;SDS011;51680;49.806;18.774;2023-04-15T11:31:14;1.97;;;1.10;;
41043;SDS011;51680;49.806;18.774;2023-04-15T11:34:21;3.13;;;1.50;;
41043;SDS011;51680;49.806;18.774;2023-04-15T11:37:28;3.08;;;1.10;;
41043;SDS011;51680;49.806;18.774;2023-04-15T11:40:30;1.65;;;1.05;;
41043;SDS011;51680;49.806;18.774;2023-04-15T11:43:34;2.25;;;1.00;;
41043;SDS011;51680;49.806;18.774;2023-04-15T11:46:36;2.22;;;0.88;;
41043;SDS011;51680;49.806;18.774;2023-04-15T11:49:38;1.35;;;0.82;;
41043;SDS011;51680;49.806;18.774;2023-04-15T11:52:42;1.55;;;0.80;;
41043;SDS011;51680;49.806;18.774;2023-04-15T11:55:53;2.20;;;0.90;;
41043;SDS011;51680;49.806;18.774;2023-04-15T11:58:55;1.98;;;0.88;;
41043;SDS011;51680;49.806;18.774;2023-04-15T12:01:58;2.85;;;1.08;;
41043;SDS011;51680;49.806;18.774;2023-04-15T12:05:03;2.08;;;1.10;;
41043;SDS011;51680;49.806;18.774;2023-04-15T12:08:07;2.78;;;1.20;;
41043;SDS011;51680;49.806;18.774;2023-04-15T12:11:08;2.90;;;1.13;;
41043;SDS011;51680;49.806;18.774;2023-04-15T12:14:11;4.38;;;1.52;;
41043;SDS011;51680;49.806;18.774;2023-04-15T12:17:21;2.08;;;1.05;;
41043;SDS011;51680;49.806;18.774;2023-04-15T12:20:24;2.03;;;1.10;;
41043;SDS011;51680;49.806;18.774;2023-04-15T12:23:27;2.30;;;1.40;;
41043;SDS011;51680;49.806;18.774;2023-04-15T12:26:30;2.38;;;1.30;;
41043;SDS011;51680;49.806;18.774;2023-04-15T12:29:37;2.80;;;1.17;;
41043;SDS011;51680;49.806;18.774;2023-04-15T12:32:59;2.20;;;1.27;;
41043;SDS011;51680;49.806;18.774;2023-04-15T12:36:02;2.00;;;0.90;;
41043;SDS011;51680;49.806;18.774;2023-04-15T12:39:06;2.17;;;1.08;;
41043;SDS011;51680;49.806;18.774;2023-04-15T12:42:08;1.90;;;1.10;;
41043;SDS011;51680;49.806;18.774;2023-04-15T12:45:10;5.50;;;1.10;;
41043;SDS011;51680;49.806;18.774;2023-04-15T12:48:12;2.38;;;1.10;;
41043;SDS011;51680;49.806;18.774;2023-04-15T12:51:14;3.85;;;1.20;;
41043;SDS011;51680;49.806;18.774;2023-04-15T12:54:17;1.70;;;1.00;;
41043;SDS011;51680;49.806;18.774;2023-04-15T12:57:19;2.60;;;1.00;;
41043;SDS011;51680;49.806;18.774;2023-04-15T13:00:21;1.92;;;1.00;;
41043;SDS011;51680;49.806;18.774;2023-04-15T13:03:23;2.95;;;1.17;;
41043;SDS011;51680;49.806;18.774;2023-04-15T13:06:25;2.38;;;1.20;;
41043;SDS011;51680;49.806;18.774;2023-04-15T13:09:29;2.63;;;1.30;;
41043;SDS011;51680;49.806;18.774;2023-04-15T13:12:31;2.70;;;1.47;;
41043;SDS011;51680;49.806;18.774;2023-04-15T13:18:37;2.85;;;1.77;;
41043;SDS011;51680;49.806;18.774;2023-04-15T13:21:39;3.72;;;1.42;;
41043;SDS011;51680;49.806;18.774;2023-04-15T13:24:42;2.30;;;1.30;;
41043;SDS011;51680;49.806;18.774;2023-04-15T13:27:45;1.58;;;0.80;;
41043;SDS011;51680;49.806;18.774;2023-04-15T13:30:47;2.22;;;1.30;;
41043;SDS011;51680;49.806;18.774;2023-04-15T13:33:49;3.00;;;1.58;;
41043;SDS011;51680;49.806;18.774;2023-04-15T13:36:50;3.78;;;2.00;;
41043;SDS011;51680;49.806;18.774;2023-04-15T13:39:53;2.78;;;1.48;;
41043;SDS011;51680;49.806;18.774;2023-04-15T13:42:55;6.32;;;3.63;;
41043;SDS011;51680;49.806;18.774;2023-04-15T13:45:57;3.45;;;2.15;;
41043;SDS011;51680;49.806;18.774;2023-04-15T13:48:59;3.00;;;1.70;;
41043;SDS011;51680;49.806;18.774;2023-04-15T13:52:01;6.93;;;2.50;;
41043;SDS011;51680;49.806;18.774;2023-04-15T13:55:05;5.05;;;2.92;;
41043;SDS011;51680;49.806;18.774;2023-04-15T13:58:07;8.88;;;2.85;;
41043;SDS011;51680;49.806;18.774;2023-04-15T14:01:09;5.03;;;2.95;;
41043;SDS011;51680;49.806;18.774;2023-04-15T14:04:12;5.93;;;3.28;;
41043;SDS011;51680;49.806;18.774;2023-04-15T14:07:14;6.68;;;2.55;;
41043;SDS011;51680;49.806;18.774;2023-04-15T14:10:17;4.07;;;2.17;;
41043;SDS011;51680;49.806;18.774;2023-04-15T14:13:19;3.00;;;1.83;;
41043;SDS011;51680;49.806;18.774;2023-04-15T14:16:20;4.15;;;2.35;;
41043;SDS011;51680;49.806;18.774;2023-04-15T14:19:22;5.30;;;2.92;;
41043;SDS011;51680;49.806;18.774;2023-04-15T14:22:24;6.85;;;3.20;;
41043;SDS011;51680;49.806;18.774;2023-04-15T14:25:27;5.93;;;2.42;;
41043;SDS011;51680;49.806;18.774;2023-04-15T14:28:29;5.93;;;2.87;;
41043;SDS011;51680;49.806;18.774;2023-04-15T14:31:31;5.47;;;2.45;;
41043;SDS011;51680;49.806;18.774;2023-04-15T14:34:33;3.67;;;2.30;;
41043;SDS011;51680;49.806;18.774;2023-04-15T14:37:35;5.22;;;2.90;;
41043;SDS011;51680;49.806;18.774;2023-04-15T14:40:38;5.88;;;3.00;;
41043;SDS011;51680;49.806;18.774;2023-04-15T14:43:41;7.88;;;3.25;;
41043;SDS011;51680;49.806;18.774;2023-04-15T14:46:43;8.98;;;4.30;;
41043;SDS011;51680;49.806;18.774;2023-04-15T14:49:44;7.90;;;3.30;;
41043;SDS011;51680;49.806;18.774;2023-04-15T14:52:46;6.03;;;3.17;;
41043;SDS011;51680;49.806;18.774;2023-04-15T14:55:49;6.57;;;2.90;;
41043;SDS011;51680;49.806;18.774;2023-04-15T14:58:51;9.88;;;2.65;;
41043;SDS011;51680;49.806;18.774;2023-04-15T15:01:53;7.85;;;3.08;;
41043;SDS011;51680;49.806;18.774;2023-04-15T15:04:56;8.48;;;4.15;;
41043;SDS011;51680;49.806;18.774;2023-04-15T15:07:58;32.60;;;10.88;;
41043;SDS011;51680;49.806;18.774;2023-04-15T15:11:01;60.55;;;17.08;;
41043;SDS011;51680;49.806;18.774;2023-04-15T15:14:03;18.23;;;7.03;;
41043;SDS011;51680;49.806;18.774;2023-04-15T15:17:05;11.30;;;5.30;;
41043;SDS011;51680;49.806;18.774;2023-04-15T15:20:07;25.40;;;7.35;;
41043;SDS011;51680;49.806;18.774;2023-04-15T15:23:09;10.02;;;5.53;;
41043;SDS011;51680;49.806;18.774;2023-04-15T15:26:12;21.55;;;10.88;;
41043;SDS011;51680;49.806;18.774;2023-04-15T15:29:14;27.25;;;14.75;;
41043;SDS011;51680;49.806;18.774;2023-04-15T15:32:16;14.90;;;8.30;;
41043;SDS011;51680;49.806;18.774;2023-04-15T15:35:18;20.73;;;11.27;;
41043;SDS011;51680;49.806;18.774;2023-04-15T15:38:21;12.38;;;5.88;;
41043;SDS011;51680;49.806;18.774;2023-04-15T15:41:24;16.42;;;9.82;;
41043;SDS011;51680;49.806;18.774;2023-04-15T15:44:26;24.92;;;15.20;;
41043;SDS011;51680;49.806;18.774;2023-04-15T15:47:28;11.80;;;7.43;;
41043;SDS011;51680;49.806;18.774;2023-04-15T15:50:30;7.38;;;4.45;;
41043;SDS011;51680;49.806;18.774;2023-04-15T15:53:32;7.43;;;3.28;;
41043;SDS011;51680;49.806;18.774;2023-04-15T15:56:35;7.30;;;3.72;;
41043;SDS011;51680;49.806;18.774;2023-04-15T15:59:38;6.57;;;3.40;;
41043;SDS011;51680;49.806;18.774;2023-04-15T16:02:43;6.55;;;2.80;;
41043;SDS011;51680;49.806;18.774;2023-04-15T16:05:45;5.07;;;3.17;;
41043;SDS011;51680;49.806;18.774;2023-04-15T16:08:47;5.63;;;2.60;;
41043;SDS011;51680;49.806;18.774;2023-04-15T16:11:51;3.78;;;2.35;;
41043;SDS011;51680;49.806;18.774;2023-04-15T16:14:53;4.43;;;2.20;;
41043;SDS011;51680;49.806;18.774;2023-04-15T16:17:55;7.63;;;3.78;;
41043;SDS011;51680;49.806;18.774;2023-04-15T16:20:57;7.82;;;3.97;;
41043;SDS011;51680;49.806;18.774;2023-04-15T16:23:59;6.63;;;3.03;;
41043;SDS011;51680;49.806;18.774;2023-04-15T16:27:03;8.85;;;4.47;;
41043;SDS011;51680;49.806;18.774;2023-04-15T16:30:05;9.98;;;6.07;;
41043;SDS011;51680;49.806;18.774;2023-04-15T16:33:08;11.43;;;5.72;;
41043;SDS011;51680;49.806;18.774;2023-04-15T16:36:10;13.63;;;8.13;;
41043;SDS011;51680;49.806;18.774;2023-04-15T16:39:12;11.27;;;6.03;;
41043;SDS011;51680;49.806;18.774;2023-04-15T16:42:15;11.35;;;6.03;;
41043;SDS011;51680;49.806;18.774;2023-04-15T16:45:17;10.90;;;6.17;;
41043;SDS011;51680;49.806;18.774;2023-04-15T16:48:18;10.18;;;4.32;;
41043;SDS011;51680;49.806;18.774;2023-04-15T16:51:21;25.70;;;6.60;;
41043;SDS011;51680;49.806;18.774;2023-04-15T16:54:23;9.55;;;5.10;;
41043;SDS011;51680;49.806;18.774;2023-04-15T16:57:26;10.60;;;6.10;;
41043;SDS011;51680;49.806;18.774;2023-04-15T17:00:28;9.47;;;5.27;;
41043;SDS011;51680;49.806;18.774;2023-04-15T17:03:29;8.40;;;4.97;;
41043;SDS011;51680;49.806;18.774;2023-04-15T17:06:31;10.15;;;6.28;;
41043;SDS011;51680;49.806;18.774;2023-04-15T17:09:33;13.02;;;7.75;;
41043;SDS011;51680;49.806;18.774;2023-04-15T17:12:36;12.95;;;7.07;;
41043;SDS011;51680;49.806;18.774;2023-04-15T17:15:38;10.47;;;6.80;;
41043;SDS011;51680;49.806;18.774;2023-04-15T17:18:58;10.27;;;5.70;;
41043;SDS011;51680;49.806;18.774;2023-04-15T17:22:00;13.48;;;6.47;;
41043;SDS011;51680;49.806;18.774;2023-04-15T17:25:02;11.98;;;6.78;;
41043;SDS011;51680;49.806;18.774;2023-04-15T17:28:06;29.98;;;14.07;;
41043;SDS011;51680;49.806;18.774;2023-04-15T17:31:08;30.90;;;15.60;;
41043;SDS011;51680;49.806;18.774;2023-04-15T17:34:10;31.50;;;13.65;;
41043;SDS011;51680;49.806;18.774;2023-04-15T17:37:12;23.60;;;11.25;;
41043;SDS011;51680;49.806;18.774;2023-04-15T17:40:15;23.67;;;12.02;;
41043;SDS011;51680;49.806;18.774;2023-04-15T17:43:18;22.38;;;11.40;;
41043;SDS011;51680;49.806;18.774;2023-04-15T17:46:19;21.50;;;12.30;;
41043;SDS011;51680;49.806;18.774;2023-04-15T17:49:40;31.52;;;16.50;;
41043;SDS011;51680;49.806;18.774;2023-04-15T17:52:42;27.58;;;14.43;;
41043;SDS011;51680;49.806;18.774;2023-04-15T17:55:47;24.80;;;12.93;;
41043;SDS011;51680;49.806;18.774;2023-04-15T17:58:53;21.23;;;10.57;;
41043;SDS011;51680;49.806;18.774;2023-04-15T18:01:56;25.20;;;13.27;;
41043;SDS011;51680;49.806;18.774;2023-04-15T18:04:58;22.67;;;11.88;;
41043;SDS011;51680;49.806;18.774;2023-04-15T18:08:00;23.17;;;12.20;;
41043;SDS011;51680;49.806;18.774;2023-04-15T18:11:02;22.35;;;12.45;;
41043;SDS011;51680;49.806;18.774;2023-04-15T18:14:05;26.92;;;14.02;;
41043;SDS011;51680;49.806;18.774;2023-04-15T18:17:07;27.77;;;14.97;;